sensor_id;sensor_type;location;lat;lon;timestamp;P1;durP1;ratioP1;P2;durP2;ratioP2
27265;SDS011;14766;51.380;13.762;2023-02-25T00:01:11;11.98;;;8.05;;
27265;SDS011;14766;51.380;13.762;2023-02-25T00:03:39;13.27;;;8.48;;
27265;SDS011;14766;51.380;13.762;2023-02-25T00:06:08;13.13;;;8.30;;
27265;SDS011;14766;51.380;13.762;2023-02-25T00:08:41;15.38;;;8.48;;
27265;SDS011;14766;51.380;13.762;2023-02-25T00:11:09;13.85;;;8.65;;
27265;SDS011;14766;51.380;13.762;2023-02-25T00:13:39;15.00;;;8.15;;
27265;SDS011;14766;51.380;13.762;2023-02-25T00:16:08;16.42;;;8.55;;
27265;SDS011;14766;51.380;13.762;2023-02-25T00:18:35;14.50;;;7.43;;
27265;SDS011;14766;51.380;13.762;2023-02-25T00:21:03;16.30;;;8.80;;
27265;SDS011;14766;51.380;13.762;2023-02-25T00:23:34;13.82;;;8.27;;
27265;SDS011;14766;51.380;13.762;2023-02-25T00:26:02;17.50;;;7.97;;
27265;SDS011;14766;51.380;13.762;2023-02-25T00:28:32;13.45;;;7.55;;
27265;SDS011;14766;51.380;13.762;2023-02-25T00:31:04;14.02;;;7.78;;
27265;SDS011;14766;51.380;13.762;2023-02-25T00:33:32;12.60;;;7.93;;
27265;SDS011;14766;51.380;13.762;2023-02-25T00:35:59;14.43;;;7.90;;
27265;SDS011;14766;51.380;13.762;2023-02-25T00:38:30;15.82;;;7.15;;
27265;SDS011;14766;51.380;13.762;2023-02-25T00:40:57;15.65;;;7.65;;
27265;SDS011;14766;51.380;13.762;2023-02-25T00:43:24;15.55;;;7.70;;
27265;SDS011;14766;51.380;13.762;2023-02-25T00:45:51;16.17;;;7.85;;
27265;SDS011;14766;51.380;13.762;2023-02-25T00:48:18;11.95;;;7.03;;
27265;SDS011;14766;51.380;13.762;2023-02-25T00:50:47;15.13;;;7.15;;
27265;SDS011;14766;51.380;13.762;2023-02-25T00:53:14;15.68;;;7.55;;
27265;SDS011;14766;51.380;13.762;2023-02-25T00:55:41;13.20;;;7.35;;
27265;SDS011;14766;51.380;13.762;2023-02-25T00:58:08;15.05;;;7.18;;
27265;SDS011;14766;51.380;13.762;2023-02-25T01:00:39;12.95;;;6.80;;
27265;SDS011;14766;51.380;13.762;2023-02-25T01:03:17;15.05;;;6.80;;
27265;SDS011;14766;51.380;13.762;2023-02-25T01:05:44;14.43;;;6.57;;
27265;SDS011;14766;51.380;13.762;2023-02-25T01:08:15;14.98;;;6.95;;
27265;SDS011;14766;51.380;13.762;2023-02-25T01:10:43;10.57;;;6.28;;
27265;SDS011;14766;51.380;13.762;2023-02-25T01:13:13;13.57;;;6.97;;
27265;SDS011;14766;51.380;13.762;2023-02-25T01:15:41;17.17;;;7.75;;
27265;SDS011;14766;51.380;13.762;2023-02-25T01:18:08;12.93;;;6.70;;
27265;SDS011;14766;51.380;13.762;2023-02-25T01:20:36;17.27;;;7.00;;
27265;SDS011;14766;51.380;13.762;2023-02-25T01:23:05;13.63;;;7.05;;
27265;SDS011;14766;51.380;13.762;2023-02-25T01:25:32;9.82;;;6.10;;
27265;SDS011;14766;51.380;13.762;2023-02-25T01:27:59;15.10;;;6.93;;
27265;SDS011;14766;51.380;13.762;2023-02-25T01:30:26;15.95;;;6.53;;
27265;SDS011;14766;51.380;13.762;2023-02-25T01:32:54;12.43;;;6.85;;
27265;SDS011;14766;51.380;13.762;2023-02-25T01:35:21;13.40;;;6.55;;
27265;SDS011;14766;51.380;13.762;2023-02-25T01:37:49;14.40;;;5.88;;
27265;SDS011;14766;51.380;13.762;2023-02-25T01:40:16;14.57;;;5.93;;
27265;SDS011;14766;51.380;13.762;2023-02-25T01:42:44;18.80;;;7.50;;
27265;SDS011;14766;51.380;13.762;2023-02-25T01:47:46;11.00;;;6.00;;
27265;SDS011;14766;51.380;13.762;2023-02-25T01:50:26;14.68;;;5.93;;
27265;SDS011;14766;51.380;13.762;2023-02-25T01:53:01;9.73;;;5.22;;
27265;SDS011;14766;51.380;13.762;2023-02-25T01:55:29;8.70;;;4.88;;
27265;SDS011;14766;51.380;13.762;2023-02-25T01:57:57;8.32;;;4.95;;
27265;SDS011;14766;51.380;13.762;2023-02-25T02:00:27;13.48;;;6.18;;
27265;SDS011;14766;51.380;13.762;2023-02-25T02:02:57;13.60;;;5.18;;
27265;SDS011;14766;51.380;13.762;2023-02-25T02:05:27;11.65;;;6.05;;
27265;SDS011;14766;51.380;13.762;2023-02-25T02:08:03;9.40;;;4.88;;
27265;SDS011;14766;51.380;13.762;2023-02-25T02:10:30;9.63;;;4.72;;
27265;SDS011;14766;51.380;13.762;2023-02-25T02:12:58;19.05;;;4.75;;
27265;SDS011;14766;51.380;13.762;2023-02-25T02:15:26;9.93;;;5.03;;
27265;SDS011;14766;51.380;13.762;2023-02-25T02:17:57;10.25;;;4.55;;
27265;SDS011;14766;51.380;13.762;2023-02-25T02:20:32;13.35;;;5.40;;
27265;SDS011;14766;51.380;13.762;2023-02-25T02:43:23;9.48;;;3.53;;
27265;SDS011;14766;51.380;13.762;2023-02-25T02:46:07;9.40;;;3.65;;
27265;SDS011;14766;51.380;13.762;2023-02-25T02:51:37;12.02;;;2.95;;
27265;SDS011;14766;51.380;13.762;2023-02-25T02:54:10;6.88;;;2.97;;
27265;SDS011;14766;51.380;13.762;2023-02-25T02:56:40;11.68;;;2.80;;
27265;SDS011;14766;51.380;13.762;2023-02-25T02:59:18;10.48;;;2.75;;
27265;SDS011;14766;51.380;13.762;2023-02-25T03:01:53;9.27;;;2.90;;
27265;SDS011;14766;51.380;13.762;2023-02-25T03:04:31;9.07;;;2.95;;
27265;SDS011;14766;51.380;13.762;2023-02-25T03:07:03;7.22;;;2.63;;
27265;SDS011;14766;51.380;13.762;2023-02-25T03:09:35;11.32;;;2.90;;
27265;SDS011;14766;51.380;13.762;2023-02-25T03:12:08;9.40;;;2.03;;
27265;SDS011;14766;51.380;13.762;2023-02-25T03:14:35;7.78;;;2.10;;
27265;SDS011;14766;51.380;13.762;2023-02-25T03:17:13;5.50;;;1.98;;
27265;SDS011;14766;51.380;13.762;2023-02-25T03:19:55;10.65;;;2.17;;
27265;SDS011;14766;51.380;13.762;2023-02-25T03:22:32;4.50;;;1.83;;
27265;SDS011;14766;51.380;13.762;2023-02-25T03:27:49;5.53;;;1.83;;
27265;SDS011;14766;51.380;13.762;2023-02-25T03:30:31;7.65;;;2.10;;
27265;SDS011;14766;51.380;13.762;2023-02-25T03:33:27;7.10;;;1.70;;
27265;SDS011;14766;51.380;13.762;2023-02-25T03:36:11;4.20;;;1.30;;
27265;SDS011;14766;51.380;13.762;2023-02-25T03:38:45;4.38;;;1.42;;
27265;SDS011;14766;51.380;13.762;2023-02-25T03:41:17;9.15;;;1.80;;
27265;SDS011;14766;51.380;13.762;2023-02-25T03:43:49;5.53;;;1.92;;
27265;SDS011;14766;51.380;13.762;2023-02-25T03:46:23;3.15;;;1.40;;
27265;SDS011;14766;51.380;13.762;2023-02-25T03:48:54;5.53;;;1.35;;
27265;SDS011;14766;51.380;13.762;2023-02-25T03:51:24;4.75;;;1.27;;
27265;SDS011;14766;51.380;13.762;2023-02-25T03:53:54;3.55;;;1.38;;
27265;SDS011;14766;51.380;13.762;2023-02-25T03:56:27;6.30;;;1.67;;
27265;SDS011;14766;51.380;13.762;2023-02-25T03:58:54;5.28;;;1.27;;
27265;SDS011;14766;51.380;13.762;2023-02-25T04:01:26;5.95;;;1.50;;
27265;SDS011;14766;51.380;13.762;2023-02-25T04:03:55;3.85;;;1.40;;
27265;SDS011;14766;51.380;13.762;2023-02-25T04:06:23;6.47;;;1.63;;
27265;SDS011;14766;51.380;13.762;2023-02-25T04:08:51;3.67;;;1.50;;
27265;SDS011;14766;51.380;13.762;2023-02-25T04:11:18;6.35;;;1.90;;
27265;SDS011;14766;51.380;13.762;2023-02-25T04:13:46;4.47;;;1.67;;
27265;SDS011;14766;51.380;13.762;2023-02-25T04:16:15;4.07;;;1.98;;
27265;SDS011;14766;51.380;13.762;2023-02-25T04:18:43;4.97;;;2.20;;
27265;SDS011;14766;51.380;13.762;2023-02-25T04:21:21;5.10;;;1.65;;
27265;SDS011;14766;51.380;13.762;2023-02-25T04:23:58;4.15;;;1.77;;
27265;SDS011;14766;51.380;13.762;2023-02-25T04:26:25;3.45;;;1.50;;
27265;SDS011;14766;51.380;13.762;2023-02-25T04:28:53;4.15;;;1.48;;
27265;SDS011;14766;51.380;13.762;2023-02-25T04:31:20;3.25;;;1.35;;
27265;SDS011;14766;51.380;13.762;2023-02-25T04:33:47;2.38;;;1.35;;
27265;SDS011;14766;51.380;13.762;2023-02-25T04:36:26;4.70;;;1.38;;
27265;SDS011;14766;51.380;13.762;2023-02-25T04:38:57;3.65;;;1.50;;
27265;SDS011;14766;51.380;13.762;2023-02-25T04:41:31;2.53;;;1.65;;
27265;SDS011;14766;51.380;13.762;2023-02-25T04:43:59;6.90;;;1.60;;
27265;SDS011;14766;51.380;13.762;2023-02-25T04:46:29;3.83;;;1.90;;
27265;SDS011;14766;51.380;13.762;2023-02-25T04:48:58;6.47;;;1.80;;
27265;SDS011;14766;51.380;13.762;2023-02-25T04:51:25;4.95;;;1.98;;
27265;SDS011;14766;51.380;13.762;2023-02-25T04:53:53;4.43;;;1.92;;
27265;SDS011;14766;51.380;13.762;2023-02-25T04:56:23;3.30;;;1.83;;
27265;SDS011;14766;51.380;13.762;2023-02-25T04:58:50;4.22;;;1.90;;
27265;SDS011;14766;51.380;13.762;2023-02-25T05:01:17;2.78;;;2.00;;
27265;SDS011;14766;51.380;13.762;2023-02-25T05:03:44;3.15;;;1.80;;
27265;SDS011;14766;51.380;13.762;2023-02-25T05:06:11;6.38;;;2.90;;
27265;SDS011;14766;51.380;13.762;2023-02-25T05:08:38;7.60;;;3.03;;
27265;SDS011;14766;51.380;13.762;2023-02-25T05:11:06;14.52;;;5.45;;
27265;SDS011;14766;51.380;13.762;2023-02-25T05:13:33;11.45;;;4.10;;
27265;SDS011;14766;51.380;13.762;2023-02-25T05:16:07;7.60;;;2.20;;
27265;SDS011;14766;51.380;13.762;2023-02-25T05:18:37;4.82;;;2.60;;
27265;SDS011;14766;51.380;13.762;2023-02-25T05:21:10;3.28;;;1.88;;
27265;SDS011;14766;51.380;13.762;2023-02-25T05:23:48;4.63;;;2.40;;
27265;SDS011;14766;51.380;13.762;2023-02-25T05:26:17;4.57;;;1.90;;
27265;SDS011;14766;51.380;13.762;2023-02-25T05:28:50;5.68;;;2.10;;
27265;SDS011;14766;51.380;13.762;2023-02-25T05:31:19;5.45;;;1.80;;
27265;SDS011;14766;51.380;13.762;2023-02-25T05:33:48;3.67;;;1.80;;
27265;SDS011;14766;51.380;13.762;2023-02-25T05:36:15;3.97;;;2.10;;
27265;SDS011;14766;51.380;13.762;2023-02-25T05:38:43;6.03;;;2.05;;
27265;SDS011;14766;51.380;13.762;2023-02-25T05:41:11;4.75;;;2.20;;
27265;SDS011;14766;51.380;13.762;2023-02-25T05:43:39;5.43;;;2.50;;
27265;SDS011;14766;51.380;13.762;2023-02-25T05:46:07;5.00;;;2.67;;
27265;SDS011;14766;51.380;13.762;2023-02-25T05:48:37;4.13;;;2.22;;
27265;SDS011;14766;51.380;13.762;2023-02-25T05:51:10;3.80;;;2.70;;
27265;SDS011;14766;51.380;13.762;2023-02-25T05:53:40;3.65;;;2.38;;
27265;SDS011;14766;51.380;13.762;2023-02-25T05:56:09;3.67;;;2.30;;
27265;SDS011;14766;51.380;13.762;2023-02-25T05:58:38;3.15;;;2.40;;
27265;SDS011;14766;51.380;13.762;2023-02-25T06:01:09;3.17;;;2.20;;
27265;SDS011;14766;51.380;13.762;2023-02-25T06:03:42;3.42;;;2.08;;
27265;SDS011;14766;51.380;13.762;2023-02-25T06:06:11;4.43;;;2.10;;
27265;SDS011;14766;51.380;13.762;2023-02-25T06:08:44;2.47;;;2.10;;
27265;SDS011;14766;51.380;13.762;2023-02-25T06:11:11;4.30;;;2.20;;
27265;SDS011;14766;51.380;13.762;2023-02-25T06:13:43;4.70;;;1.60;;
27265;SDS011;14766;51.380;13.762;2023-02-25T06:16:10;1.65;;;1.55;;
27265;SDS011;14766;51.380;13.762;2023-02-25T06:18:38;2.60;;;1.50;;
27265;SDS011;14766;51.380;13.762;2023-02-25T06:21:07;2.55;;;1.48;;
27265;SDS011;14766;51.380;13.762;2023-02-25T06:23:37;1.60;;;1.20;;
27265;SDS011;14766;51.380;13.762;2023-02-25T06:26:05;2.15;;;1.40;;
27265;SDS011;14766;51.380;13.762;2023-02-25T06:28:34;2.58;;;1.55;;
27265;SDS011;14766;51.380;13.762;2023-02-25T06:31:01;2.28;;;1.20;;
27265;SDS011;14766;51.380;13.762;2023-02-25T06:33:33;3.13;;;1.40;;
27265;SDS011;14766;51.380;13.762;2023-02-25T06:36:01;3.00;;;1.60;;
27265;SDS011;14766;51.380;13.762;2023-02-25T06:38:28;1.52;;;1.42;;
27265;SDS011;14766;51.380;13.762;2023-02-25T06:40:56;2.28;;;1.40;;
27265;SDS011;14766;51.380;13.762;2023-02-25T06:43:23;3.05;;;1.45;;
27265;SDS011;14766;51.380;13.762;2023-02-25T06:45:50;2.83;;;2.00;;
27265;SDS011;14766;51.380;13.762;2023-02-25T06:48:17;4.45;;;2.53;;
27265;SDS011;14766;51.380;13.762;2023-02-25T06:50:44;2.05;;;1.88;;
27265;SDS011;14766;51.380;13.762;2023-02-25T06:53:11;2.80;;;1.77;;
27265;SDS011;14766;51.380;13.762;2023-02-25T06:55:38;1.98;;;1.77;;
27265;SDS011;14766;51.380;13.762;2023-02-25T06:58:06;2.88;;;2.00;;
27265;SDS011;14766;51.380;13.762;2023-02-25T07:00:33;2.97;;;2.13;;
27265;SDS011;14766;51.380;13.762;2023-02-25T07:03:00;2.25;;;1.98;;
27265;SDS011;14766;51.380;13.762;2023-02-25T07:05:28;2.30;;;1.60;;
27265;SDS011;14766;51.380;13.762;2023-02-25T07:07:56;3.45;;;2.10;;
27265;SDS011;14766;51.380;13.762;2023-02-25T07:10:23;1.83;;;1.60;;
27265;SDS011;14766;51.380;13.762;2023-02-25T07:12:50;2.17;;;1.92;;
27265;SDS011;14766;51.380;13.762;2023-02-25T07:15:19;2.30;;;1.70;;
27265;SDS011;14766;51.380;13.762;2023-02-25T07:17:47;3.47;;;1.88;;
27265;SDS011;14766;51.380;13.762;2023-02-25T07:20:14;2.00;;;1.67;;
27265;SDS011;14766;51.380;13.762;2023-02-25T07:22:42;2.75;;;1.88;;
27265;SDS011;14766;51.380;13.762;2023-02-25T07:25:09;3.25;;;1.73;;
27265;SDS011;14766;51.380;13.762;2023-02-25T07:27:40;3.95;;;1.85;;
27265;SDS011;14766;51.380;13.762;2023-02-25T07:30:10;3.25;;;1.40;;
27265;SDS011;14766;51.380;13.762;2023-02-25T07:32:39;2.58;;;1.58;;
27265;SDS011;14766;51.380;13.762;2023-02-25T07:35:07;4.03;;;2.50;;
27265;SDS011;14766;51.380;13.762;2023-02-25T07:37:35;7.28;;;4.25;;
27265;SDS011;14766;51.380;13.762;2023-02-25T07:40:03;3.22;;;2.78;;
27265;SDS011;14766;51.380;13.762;2023-02-25T07:42:39;2.08;;;1.70;;
27265;SDS011;14766;51.380;13.762;2023-02-25T07:45:07;5.03;;;2.28;;
27265;SDS011;14766;51.380;13.762;2023-02-25T07:47:36;2.25;;;1.30;;
27265;SDS011;14766;51.380;13.762;2023-02-25T07:50:04;6.05;;;1.52;;
27265;SDS011;14766;51.380;13.762;2023-02-25T07:52:33;1.88;;;1.50;;
27265;SDS011;14766;51.380;13.762;2023-02-25T07:55:02;2.22;;;1.52;;
27265;SDS011;14766;51.380;13.762;2023-02-25T07:57:31;2.30;;;1.50;;
27265;SDS011;14766;51.380;13.762;2023-02-25T07:59:58;3.13;;;1.75;;
27265;SDS011;14766;51.380;13.762;2023-02-25T08:02:25;2.97;;;2.00;;
27265;SDS011;14766;51.380;13.762;2023-02-25T08:04:52;3.70;;;1.70;;
27265;SDS011;14766;51.380;13.762;2023-02-25T08:07:20;2.70;;;1.75;;
27265;SDS011;14766;51.380;13.762;2023-02-25T08:09:47;3.10;;;2.10;;
27265;SDS011;14766;51.380;13.762;2023-02-25T08:12:14;3.50;;;1.67;;
27265;SDS011;14766;51.380;13.762;2023-02-25T08:14:41;4.18;;;2.00;;
27265;SDS011;14766;51.380;13.762;2023-02-25T08:17:08;2.78;;;1.85;;
27265;SDS011;14766;51.380;13.762;2023-02-25T08:19:35;2.70;;;2.03;;
27265;SDS011;14766;51.380;13.762;2023-02-25T08:22:02;5.13;;;2.38;;
27265;SDS011;14766;51.380;13.762;2023-02-25T08:24:30;6.10;;;2.22;;
27265;SDS011;14766;51.380;13.762;2023-02-25T08:26:57;3.10;;;1.95;;
27265;SDS011;14766;51.380;13.762;2023-02-25T08:29:24;3.08;;;2.05;;
27265;SDS011;14766;51.380;13.762;2023-02-25T08:31:53;4.15;;;2.42;;
27265;SDS011;14766;51.380;13.762;2023-02-25T08:34:21;2.63;;;2.13;;
27265;SDS011;14766;51.380;13.762;2023-02-25T08:36:48;2.25;;;1.83;;
27265;SDS011;14766;51.380;13.762;2023-02-25T08:39:15;3.70;;;2.03;;
27265;SDS011;14766;51.380;13.762;2023-02-25T08:41:43;2.78;;;2.00;;
27265;SDS011;14766;51.380;13.762;2023-02-25T08:44:11;3.00;;;2.00;;
27265;SDS011;14766;51.380;13.762;2023-02-25T08:46:39;3.38;;;2.00;;
27265;SDS011;14766;51.380;13.762;2023-02-25T08:49:06;3.92;;;2.25;;
27265;SDS011;14766;51.380;13.762;2023-02-25T08:51:33;3.58;;;2.03;;
27265;SDS011;14766;51.380;13.762;2023-02-25T08:54:01;5.88;;;2.38;;
27265;SDS011;14766;51.380;13.762;2023-02-25T08:56:39;5.55;;;3.10;;
27265;SDS011;14766;51.380;13.762;2023-02-25T08:59:13;8.95;;;4.60;;
27265;SDS011;14766;51.380;13.762;2023-02-25T09:01:41;9.88;;;5.47;;
27265;SDS011;14766;51.380;13.762;2023-02-25T09:04:21;9.00;;;6.55;;
27265;SDS011;14766;51.380;13.762;2023-02-25T09:06:49;8.85;;;3.83;;
27265;SDS011;14766;51.380;13.762;2023-02-25T09:09:18;2.38;;;2.00;;
27265;SDS011;14766;51.380;13.762;2023-02-25T09:11:46;5.78;;;2.50;;
27265;SDS011;14766;51.380;13.762;2023-02-25T09:14:14;3.50;;;1.80;;
27265;SDS011;14766;51.380;13.762;2023-02-25T09:16:42;4.95;;;2.30;;
27265;SDS011;14766;51.380;13.762;2023-02-25T09:19:10;3.38;;;2.30;;
27265;SDS011;14766;51.380;13.762;2023-02-25T09:21:38;3.60;;;2.13;;
27265;SDS011;14766;51.380;13.762;2023-02-25T09:24:08;4.25;;;2.08;;
27265;SDS011;14766;51.380;13.762;2023-02-25T09:26:35;2.28;;;1.85;;
27265;SDS011;14766;51.380;13.762;2023-02-25T09:29:02;2.88;;;2.10;;
27265;SDS011;14766;51.380;13.762;2023-02-25T09:31:30;2.67;;;1.70;;
27265;SDS011;14766;51.380;13.762;2023-02-25T09:34:00;5.55;;;1.83;;
27265;SDS011;14766;51.380;13.762;2023-02-25T09:36:32;2.10;;;1.58;;
27265;SDS011;14766;51.380;13.762;2023-02-25T09:38:59;2.72;;;1.42;;
27265;SDS011;14766;51.380;13.762;2023-02-25T09:44:04;3.53;;;1.40;;
27265;SDS011;14766;51.380;13.762;2023-02-25T09:46:39;3.88;;;1.92;;
27265;SDS011;14766;51.380;13.762;2023-02-25T09:49:20;3.08;;;1.83;;
27265;SDS011;14766;51.380;13.762;2023-02-25T09:51:53;3.47;;;1.60;;
27265;SDS011;14766;51.380;13.762;2023-02-25T09:54:29;4.72;;;1.90;;
27265;SDS011;14766;51.380;13.762;2023-02-25T09:57:03;3.30;;;1.65;;
27265;SDS011;14766;51.380;13.762;2023-02-25T09:59:33;3.75;;;1.77;;
27265;SDS011;14766;51.380;13.762;2023-02-25T10:07:45;2.30;;;1.50;;
27265;SDS011;14766;51.380;13.762;2023-02-25T10:10:20;2.42;;;1.30;;
27265;SDS011;14766;51.380;13.762;2023-02-25T10:13:23;3.95;;;2.10;;
27265;SDS011;14766;51.380;13.762;2023-02-25T10:16:01;2.75;;;1.85;;
27265;SDS011;14766;51.380;13.762;2023-02-25T10:18:55;2.45;;;1.38;;
27265;SDS011;14766;51.380;13.762;2023-02-25T10:21:58;1.20;;;0.80;;
27265;SDS011;14766;51.380;13.762;2023-02-25T10:24:47;2.28;;;1.30;;
27265;SDS011;14766;51.380;13.762;2023-02-25T10:27:26;1.73;;;1.10;;
27265;SDS011;14766;51.380;13.762;2023-02-25T10:30:00;2.80;;;1.35;;
27265;SDS011;14766;51.380;13.762;2023-02-25T10:32:47;1.95;;;1.17;;
27265;SDS011;14766;51.380;13.762;2023-02-25T10:35:18;3.45;;;1.20;;
27265;SDS011;14766;51.380;13.762;2023-02-25T10:37:48;2.83;;;1.20;;
27265;SDS011;14766;51.380;13.762;2023-02-25T10:40:19;1.40;;;0.95;;
27265;SDS011;14766;51.380;13.762;2023-02-25T10:42:51;2.22;;;1.20;;
27265;SDS011;14766;51.380;13.762;2023-02-25T10:45:28;2.33;;;1.25;;
27265;SDS011;14766;51.380;13.762;2023-02-25T10:48:06;1.70;;;1.35;;
27265;SDS011;14766;51.380;13.762;2023-02-25T10:50:41;2.22;;;1.05;;
27265;SDS011;14766;51.380;13.762;2023-02-25T10:53:13;2.55;;;1.30;;
27265;SDS011;14766;51.380;13.762;2023-02-25T10:55:49;1.38;;;1.00;;
27265;SDS011;14766;51.380;13.762;2023-02-25T11:03:43;1.88;;;1.38;;
27265;SDS011;14766;51.380;13.762;2023-02-25T11:08:56;2.30;;;1.40;;
27265;SDS011;14766;51.380;13.762;2023-02-25T11:11:26;1.48;;;0.90;;
27265;SDS011;14766;51.380;13.762;2023-02-25T11:14:00;1.25;;;0.90;;
27265;SDS011;14766;51.380;13.762;2023-02-25T11:16:41;1.10;;;1.00;;
27265;SDS011;14766;51.380;13.762;2023-02-25T11:19:20;1.25;;;0.70;;
27265;SDS011;14766;51.380;13.762;2023-02-25T11:21:52;1.63;;;0.77;;
27265;SDS011;14766;51.380;13.762;2023-02-25T11:24:31;1.40;;;1.05;;
27265;SDS011;14766;51.380;13.762;2023-02-25T11:27:01;1.70;;;1.10;;
27265;SDS011;14766;51.380;13.762;2023-02-25T11:29:32;1.65;;;1.23;;
27265;SDS011;14766;51.380;13.762;2023-02-25T11:32:08;2.30;;;0.82;;
27265;SDS011;14766;51.380;13.762;2023-02-25T11:34:46;2.58;;;1.30;;
27265;SDS011;14766;51.380;13.762;2023-02-25T11:37:35;2.30;;;1.33;;
27265;SDS011;14766;51.380;13.762;2023-02-25T11:40:24;1.77;;;0.73;;
27265;SDS011;14766;51.380;13.762;2023-02-25T11:45:38;1.60;;;1.30;;
27265;SDS011;14766;51.380;13.762;2023-02-25T11:48:16;1.08;;;0.93;;
27265;SDS011;14766;51.380;13.762;2023-02-25T11:50:55;1.45;;;0.80;;
27265;SDS011;14766;51.380;13.762;2023-02-25T11:56:27;0.95;;;0.57;;
27265;SDS011;14766;51.380;13.762;2023-02-25T12:10:45;1.70;;;0.45;;
27265;SDS011;14766;51.380;13.762;2023-02-25T12:16:26;1.60;;;0.60;;
27265;SDS011;14766;51.380;13.762;2023-02-25T12:22:12;0.40;;;0.38;;
27265;SDS011;14766;51.380;13.762;2023-02-25T12:44:04;0.93;;;0.47;;
27265;SDS011;14766;51.380;13.762;2023-02-25T12:52:02;0.93;;;0.60;;
27265;SDS011;14766;51.380;13.762;2023-02-25T13:08:59;2.63;;;0.80;;
27265;SDS011;14766;51.380;13.762;2023-02-25T13:14:45;1.08;;;0.98;;
27265;SDS011;14766;51.380;13.762;2023-02-25T13:17:26;1.52;;;1.08;;
27265;SDS011;14766;51.380;13.762;2023-02-25T13:32:00;1.02;;;0.80;;
27265;SDS011;14766;51.380;13.762;2023-02-25T13:40:05;1.08;;;0.60;;
27265;SDS011;14766;51.380;13.762;2023-02-25T13:49:01;1.48;;;0.75;;
27265;SDS011;14766;51.380;13.762;2023-02-25T13:52:02;2.15;;;1.58;;
27265;SDS011;14766;51.380;13.762;2023-02-25T13:54:47;1.30;;;0.88;;
27265;SDS011;14766;51.380;13.762;2023-02-25T14:17:25;1.33;;;1.02;;
27265;SDS011;14766;51.380;13.762;2023-02-25T14:19:59;1.05;;;0.95;;
27265;SDS011;14766;51.380;13.762;2023-02-25T14:22:45;1.40;;;1.00;;
27265;SDS011;14766;51.380;13.762;2023-02-25T14:28:36;1.40;;;1.02;;
27265;SDS011;14766;51.380;13.762;2023-02-25T14:31:24;2.22;;;1.20;;
27265;SDS011;14766;51.380;13.762;2023-02-25T14:37:29;1.38;;;1.27;;
27265;SDS011;14766;51.380;13.762;2023-02-25T14:45:14;1.92;;;1.25;;
27265;SDS011;14766;51.380;13.762;2023-02-25T14:47:50;1.50;;;1.13;;
27265;SDS011;14766;51.380;13.762;2023-02-25T14:56:03;1.40;;;1.23;;
27265;SDS011;14766;51.380;13.762;2023-02-25T15:10:10;5.70;;;3.20;;
27265;SDS011;14766;51.380;13.762;2023-02-25T15:20:54;7.18;;;4.95;;
27265;SDS011;14766;51.380;13.762;2023-02-25T15:23:21;7.70;;;5.25;;
27265;SDS011;14766;51.380;13.762;2023-02-25T15:26:25;4.03;;;2.95;;
27265;SDS011;14766;51.380;13.762;2023-02-25T15:29:46;1.60;;;1.50;;
27265;SDS011;14766;51.380;13.762;2023-02-25T15:39:54;10.07;;;6.40;;
27265;SDS011;14766;51.380;13.762;2023-02-25T15:48:33;1.77;;;1.30;;
27265;SDS011;14766;51.380;13.762;2023-02-25T15:51:03;2.30;;;1.55;;
27265;SDS011;14766;51.380;13.762;2023-02-25T15:53:37;2.58;;;1.55;;
27265;SDS011;14766;51.380;13.762;2023-02-25T15:58:40;2.90;;;1.40;;
27265;SDS011;14766;51.380;13.762;2023-02-25T16:01:25;0.93;;;0.80;;
27265;SDS011;14766;51.380;13.762;2023-02-25T16:03:54;1.45;;;0.95;;
27265;SDS011;14766;51.380;13.762;2023-02-25T16:09:21;2.25;;;1.33;;
27265;SDS011;14766;51.380;13.762;2023-02-25T16:11:52;2.17;;;1.00;;
27265;SDS011;14766;51.380;13.762;2023-02-25T16:14:32;0.90;;;0.75;;
27265;SDS011;14766;51.380;13.762;2023-02-25T16:17:13;2.58;;;1.98;;
27265;SDS011;14766;51.380;13.762;2023-02-25T16:20:24;3.72;;;3.08;;
27265;SDS011;14766;51.380;13.762;2023-02-25T16:22:50;2.80;;;2.60;;
27265;SDS011;14766;51.380;13.762;2023-02-25T16:25:34;2.38;;;1.75;;
27265;SDS011;14766;51.380;13.762;2023-02-25T16:28:31;1.50;;;1.00;;
27265;SDS011;14766;51.380;13.762;2023-02-25T16:34:08;2.22;;;1.10;;
27265;SDS011;14766;51.380;13.762;2023-02-25T16:39:45;1.20;;;0.90;;
27265;SDS011;14766;51.380;13.762;2023-02-25T16:42:15;3.63;;;1.60;;
27265;SDS011;14766;51.380;13.762;2023-02-25T16:44:44;4.00;;;2.00;;
27265;SDS011;14766;51.380;13.762;2023-02-25T16:47:24;2.05;;;1.40;;
27265;SDS011;14766;51.380;13.762;2023-02-25T16:49:54;2.28;;;1.45;;
27265;SDS011;14766;51.380;13.762;2023-02-25T16:52:24;2.55;;;1.23;;
27265;SDS011;14766;51.380;13.762;2023-02-25T16:55:04;1.40;;;1.10;;
27265;SDS011;14766;51.380;13.762;2023-02-25T16:57:38;1.25;;;1.10;;
27265;SDS011;14766;51.380;13.762;2023-02-25T17:02:49;1.35;;;1.23;;
27265;SDS011;14766;51.380;13.762;2023-02-25T17:05:28;2.53;;;1.35;;
27265;SDS011;14766;51.380;13.762;2023-02-25T17:07:58;3.13;;;1.20;;
27265;SDS011;14766;51.380;13.762;2023-02-25T17:10:41;1.40;;;1.23;;
27265;SDS011;14766;51.380;13.762;2023-02-25T17:13:53;1.65;;;1.30;;
27265;SDS011;14766;51.380;13.762;2023-02-25T17:16:02;1.45;;;1.27;;
27265;SDS011;14766;51.380;13.762;2023-02-25T17:18:33;2.33;;;1.40;;
27265;SDS011;14766;51.380;13.762;2023-02-25T17:21:07;1.70;;;1.20;;
27265;SDS011;14766;51.380;13.762;2023-02-25T17:23:44;1.30;;;1.00;;
27265;SDS011;14766;51.380;13.762;2023-02-25T17:26:15;1.35;;;1.00;;
27265;SDS011;14766;51.380;13.762;2023-02-25T17:28:45;1.85;;;0.80;;
27265;SDS011;14766;51.380;13.762;2023-02-25T17:31:18;1.08;;;0.98;;
27265;SDS011;14766;51.380;13.762;2023-02-25T17:36:21;1.45;;;0.90;;
27265;SDS011;14766;51.380;13.762;2023-02-25T17:39:03;1.63;;;1.00;;
27265;SDS011;14766;51.380;13.762;2023-02-25T17:41:37;1.98;;;1.10;;
27265;SDS011;14766;51.380;13.762;2023-02-25T17:44:11;2.75;;;1.83;;
27265;SDS011;14766;51.380;13.762;2023-02-25T17:46:58;2.83;;;2.63;;
27265;SDS011;14766;51.380;13.762;2023-02-25T17:51:56;2.63;;;1.77;;
27265;SDS011;14766;51.380;13.762;2023-02-25T17:54:26;1.10;;;1.00;;
27265;SDS011;14766;51.380;13.762;2023-02-25T17:56:59;1.65;;;1.10;;
27265;SDS011;14766;51.380;13.762;2023-02-25T17:59:42;3.08;;;1.35;;
27265;SDS011;14766;51.380;13.762;2023-02-25T18:02:38;2.85;;;1.38;;
27265;SDS011;14766;51.380;13.762;2023-02-25T18:12:57;2.75;;;1.70;;
27265;SDS011;14766;51.380;13.762;2023-02-25T18:15:28;5.05;;;1.80;;
27265;SDS011;14766;51.380;13.762;2023-02-25T18:18:01;2.92;;;1.65;;
27265;SDS011;14766;51.380;13.762;2023-02-25T18:20:31;2.63;;;1.70;;
27265;SDS011;14766;51.380;13.762;2023-02-25T18:23:05;2.83;;;1.83;;
27265;SDS011;14766;51.380;13.762;2023-02-25T18:25:38;3.67;;;1.98;;
27265;SDS011;14766;51.380;13.762;2023-02-25T18:28:13;4.15;;;2.30;;
27265;SDS011;14766;51.380;13.762;2023-02-25T18:30:47;6.50;;;4.28;;
27265;SDS011;14766;51.380;13.762;2023-02-25T18:33:17;9.10;;;4.32;;
27265;SDS011;14766;51.380;13.762;2023-02-25T18:35:45;5.50;;;2.85;;
27265;SDS011;14766;51.380;13.762;2023-02-25T18:38:17;4.13;;;2.67;;
27265;SDS011;14766;51.380;13.762;2023-02-25T18:40:49;3.72;;;2.15;;
27265;SDS011;14766;51.380;13.762;2023-02-25T18:43:19;2.60;;;1.83;;
27265;SDS011;14766;51.380;13.762;2023-02-25T18:45:47;6.32;;;3.20;;
27265;SDS011;14766;51.380;13.762;2023-02-25T18:48:15;7.22;;;3.67;;
27265;SDS011;14766;51.380;13.762;2023-02-25T18:50:42;3.65;;;1.70;;
27265;SDS011;14766;51.380;13.762;2023-02-25T18:53:14;4.80;;;2.55;;
27265;SDS011;14766;51.380;13.762;2023-02-25T18:55:45;3.42;;;1.95;;